Time;durP1;ratioP1;P1;durP2;ratioP2;P2;SDS_P1;SDS_P2;PMS_P1;PMS_P2;Temp;Humidity;BMP_temperature;BMP_pressure;BME280_temperature;BME280_humidity;BME280_pressure;Samples;Min_cycle;Max_cycle;Signal;HPM_P1;HPM_P2
2023/05/09 00:00:10;;;;;;;4.03;3.93;;;20.30;70.80;;;;;;5052018;28;43456;-70
2023/05/09 00:02:41;;;;;;;4.03;3.93;;;20.30;71.00;;;;;;5029099;28;44989;-70
2023/05/09 00:05:09;;;;;;;4.53;4.43;;;20.20;71.00;;;;;;5045628;28;43433;-69
2023/05/09 00:07:38;;;;;;;4.07;3.97;;;20.20;71.00;;;;;;5038075;28;43438;-70
2023/05/09 00:10:07;;;;;;;4.10;4.00;;;20.20;71.10;;;;;;5046612;28;43434;-70
2023/05/09 00:12:35;;;;;;;4.10;3.90;;;20.20;71.20;;;;;;5046446;28;43937;-70
2023/05/09 00:15:07;;;;;;;4.80;4.67;;;20.20;71.20;;;;;;5026165;28;44448;-69
2023/05/09 00:17:37;;;;;;;4.50;4.30;;;20.20;71.50;;;;;;5048543;28;43424;-69
2023/05/09 00:20:09;;;;;;;4.80;4.67;;;20.20;71.40;;;;;;5032074;28;43592;-70
2023/05/09 00:22:37;;;;;;;4.40;4.30;;;20.30;71.00;;;;;;5029186;28;45664;-70
2023/05/09 00:25:06;;;;;;;4.20;4.10;;;20.50;70.30;;;;;;5051364;28;43466;-70
2023/05/09 00:27:36;;;;;;;4.17;4.07;;;20.80;69.90;;;;;;5048419;28;43299;-70
2023/05/09 00:30:06;;;;;;;4.23;4.00;;;21.00;69.20;;;;;;5033114;28;43629;-70
2023/05/09 00:32:34;;;;;;;4.00;3.90;;;21.20;68.60;;;;;;5028634;28;46028;-69
2023/05/09 00:35:02;;;;;;;4.20;4.10;;;21.30;67.90;;;;;;5031512;28;43942;-70
2023/05/09 00:37:31;;;;;;;4.37;4.17;;;21.50;67.50;;;;;;5048414;28;43459;-70
2023/05/09 00:39:59;;;;;;;4.50;4.37;;;21.60;67.10;;;;;;5056502;28;43443;-69
2023/05/09 00:42:29;;;;;;;4.43;4.30;;;21.60;66.90;;;;;;5051198;28;43715;-69
2023/05/09 00:44:57;;;;;;;4.80;4.70;;;21.70;66.70;;;;;;5049279;28;43507;-70
2023/05/09 00:47:27;;;;;;;4.50;4.30;;;21.60;66.90;;;;;;5023152;28;43427;-69
2023/05/09 00:49:56;;;;;;;4.00;3.90;;;21.40;67.10;;;;;;5037148;28;43359;-69
2023/05/09 00:52:25;;;;;;;4.40;4.30;;;21.30;67.70;;;;;;5038490;28;43598;-69
2023/05/09 00:54:53;;;;;;;4.40;4.20;;;21.20;68.20;;;;;;5051406;28;43382;-69
2023/05/09 00:57:21;;;;;;;4.30;4.10;;;21.20;68.30;;;;;;5050155;28;43504;-69
2023/05/09 00:59:49;;;;;;;4.20;4.10;;;21.20;68.10;;;;;;5024627;28;44006;-70
2023/05/09 01:02:17;;;;;;;4.40;4.30;;;21.20;68.20;;;;;;5018192;28;45739;-70
2023/05/09 01:04:50;;;;;;;4.17;3.97;;;21.10;68.30;;;;;;5018235;28;43504;-69
2023/05/09 01:07:22;;;;;;;4.50;4.40;;;21.00;68.50;;;;;;5039324;28;43406;-69
2023/05/09 01:09:58;;;;;;;4.30;4.20;;;20.90;69.00;;;;;;5034570;28;43372;-69
2023/05/09 01:12:31;;;;;;;4.77;4.57;;;20.90;69.10;;;;;;5013904;28;45927;-68
2023/05/09 01:15:02;;;;;;;4.20;4.10;;;20.80;69.10;;;;;;5045239;28;43511;-70
2023/05/09 01:17:36;;;;;;;4.20;4.10;;;20.80;69.30;;;;;;5040911;28;43420;-70
2023/05/09 01:20:10;;;;;;;4.17;4.07;;;20.70;69.50;;;;;;5025654;28;43539;-69
2023/05/09 01:22:40;;;;;;;4.07;3.93;;;20.60;69.90;;;;;;5041480;28;43759;-69
2023/05/09 01:25:19;;;;;;;3.93;3.83;;;20.60;70.00;;;;;;5043248;28;43449;-70
2023/05/09 01:27:51;;;;;;;4.00;3.90;;;20.60;70.10;;;;;;5041235;28;43354;-69
2023/05/09 01:30:20;;;;;;;4.20;4.00;;;20.50;70.00;;;;;;5035143;28;43307;-69
2023/05/09 01:32:49;;;;;;;3.97;3.87;;;20.50;70.50;;;;;;5040787;28;43823;-70
2023/05/09 01:35:19;;;;;;;4.10;4.00;;;20.50;70.60;;;;;;5042923;28;44484;-69
2023/05/09 01:37:49;;;;;;;3.90;3.80;;;20.50;70.50;;;;;;5036325;28;43464;-70
2023/05/09 01:40:18;;;;;;;3.70;3.60;;;20.40;70.30;;;;;;5031679;28;43474;-69
2023/05/09 01:42:49;;;;;;;4.10;4.00;;;20.40;70.40;;;;;;5026320;28;45806;-69
2023/05/09 01:45:17;;;;;;;4.10;4.00;;;20.30;70.70;;;;;;5017931;28;44865;-69
2023/05/09 01:47:46;;;;;;;4.43;4.33;;;20.40;70.90;;;;;;5015960;28;43400;-69
2023/05/09 01:50:14;;;;;;;4.33;4.13;;;20.50;70.60;;;;;;5020472;28;43528;-70
2023/05/09 01:52:42;;;;;;;4.17;4.07;;;20.60;70.20;;;;;;5041931;28;44025;-70
2023/05/09 01:55:10;;;;;;;4.70;4.60;;;20.70;69.60;;;;;;5028449;28;43437;-70
2023/05/09 01:57:38;;;;;;;4.67;4.47;;;20.80;69.20;;;;;;5044076;28;43516;-70
2023/05/09 02:00:09;;;;;;;4.67;4.57;;;20.80;69.20;;;;;;5023373;28;43572;-70
2023/05/09 02:02:40;;;;;;;4.27;4.17;;;20.80;69.30;;;;;;5034073;28;43521;-70
2023/05/09 02:05:10;;;;;;;5.30;5.10;;;20.70;69.30;;;;;;5026099;28;43950;-69
2023/05/09 02:07:40;;;;;;;5.60;5.37;;;20.60;69.80;;;;;;5014218;28;43414;-70
2023/05/09 02:10:09;;;;;;;4.93;4.63;;;20.60;70.10;;;;;;5026380;28;43493;-69
2023/05/09 02:12:39;;;;;;;4.93;4.70;;;20.50;70.00;;;;;;5028348;28;45342;-69
2023/05/09 02:15:08;;;;;;;4.40;4.30;;;20.50;70.00;;;;;;5023716;28;43443;-69
2023/05/09 02:17:41;;;;;;;5.90;5.60;;;20.50;70.10;;;;;;5023152;28;43402;-69
2023/05/09 02:20:13;;;;;;;6.23;5.93;;;20.40;70.40;;;;;;5043795;28;44060;-69
2023/05/09 02:22:41;;;;;;;6.00;5.70;;;20.40;70.70;;;;;;5039657;28;44384;-68
2023/05/09 02:25:10;;;;;;;5.70;5.50;;;20.40;70.70;;;;;;5006524;28;45003;-68
2023/05/09 02:27:39;;;;;;;5.07;4.87;;;20.30;70.40;;;;;;5019132;28;43507;-69
2023/05/09 02:30:09;;;;;;;6.37;6.07;;;20.30;70.40;;;;;;5034968;28;43501;-69
2023/05/09 02:32:37;;;;;;;6.30;6.00;;;20.30;70.80;;;;;;5037926;28;43908;-70
2023/05/09 02:35:06;;;;;;;6.90;6.60;;;20.30;71.00;;;;;;5038507;28;43449;-69
2023/05/09 02:37:35;;;;;;;7.20;6.80;;;20.40;70.80;;;;;;5041954;28;43448;-69
2023/05/09 02:40:05;;;;;;;7.80;7.33;;;20.50;70.30;;;;;;5039115;28;43606;-69
2023/05/09 02:42:33;;;;;;;7.03;6.63;;;20.60;69.90;;;;;;5021410;28;45799;-70
2023/05/09 02:45:01;;;;;;;7.43;7.03;;;20.60;70.10;;;;;;5015846;28;44916;-69
2023/05/09 02:47:29;;;;;;;6.83;6.53;;;20.60;69.80;;;;;;5037820;28;43396;-69
2023/05/09 02:49:58;;;;;;;6.73;6.43;;;20.60;69.90;;;;;;5023608;28;43419;-69
2023/05/09 02:52:26;;;;;;;7.80;7.37;;;20.50;70.00;;;;;;5022684;28;45710;-70
2023/05/09 02:54:55;;;;;;;8.33;7.83;;;20.40;70.40;;;;;;5021850;28;44735;-70
2023/05/09 02:57:24;;;;;;;8.27;7.77;;;20.40;70.50;;;;;;5020746;28;43835;-70
2023/05/09 02:59:52;;;;;;;7.27;6.97;;;20.40;70.50;;;;;;5024908;28;43580;-70
2023/05/09 03:02:19;;;;;;;7.70;7.10;;;20.40;70.40;;;;;;5024306;28;46088;-70
2023/05/09 03:04:48;;;;;;;9.13;8.53;;;20.40;70.60;;;;;;5023383;28;43810;-70
2023/05/09 03:07:16;;;;;;;9.27;8.67;;;20.30;71.00;;;;;;5022310;28;43347;-70
2023/05/09 03:09:44;;;;;;;9.60;9.00;;;20.30;70.90;;;;;;5037538;28;43420;-69
2023/05/09 03:12:14;;;;;;;8.67;8.10;;;20.40;70.50;;;;;;5020369;28;45881;-70
2023/05/09 03:14:42;;;;;;;10.47;9.60;;;20.60;70.20;;;;;;5036679;28;43451;-70
2023/05/09 03:17:10;;;;;;;9.90;9.20;;;20.60;69.80;;;;;;5021139;28;43351;-70
2023/05/09 03:19:38;;;;;;;9.20;8.60;;;20.60;69.80;;;;;;5022423;28;44215;-70
2023/05/09 03:22:06;;;;;;;9.07;8.47;;;20.60;69.80;;;;;;5038198;28;43833;-69
2023/05/09 03:24:40;;;;;;;8.50;7.90;;;20.50;69.80;;;;;;5018118;28;43467;-70
2023/05/09 03:27:08;;;;;;;9.43;8.80;;;20.50;70.00;;;;;;5024666;28;43455;-70
2023/05/09 03:29:38;;;;;;;10.70;9.87;;;20.40;70.50;;;;;;5023469;28;44055;-70
2023/05/09 03:32:06;;;;;;;10.10;9.33;;;20.40;70.60;;;;;;5020364;28;45881;-69
2023/05/09 03:34:34;;;;;;;8.97;8.37;;;20.30;70.40;;;;;;5021751;28;45462;-69
2023/05/09 03:37:03;;;;;;;10.33;9.63;;;20.30;70.40;;;;;;5026757;28;43363;-70
2023/05/09 03:39:32;;;;;;;10.63;9.93;;;20.30;70.60;;;;;;5019613;28;43600;-69
2023/05/09 03:42:00;;;;;;;10.27;9.53;;;20.30;71.00;;;;;;5036513;28;43892;-70
2023/05/09 03:44:28;;;;;;;9.80;9.17;;;20.30;71.00;;;;;;5025602;28;43401;-69
2023/05/09 03:46:58;;;;;;;9.33;8.67;;;20.30;70.80;;;;;;5020632;28;43407;-69
2023/05/09 03:49:28;;;;;;;9.13;8.53;;;20.30;70.80;;;;;;5011920;28;43546;-70
2023/05/09 03:51:56;;;;;;;9.70;9.10;;;20.20;70.70;;;;;;5037186;28;44881;-69
2023/05/09 03:54:26;;;;;;;10.80;10.00;;;20.20;71.10;;;;;;5010409;28;44712;-70
2023/05/09 03:56:55;;;;;;;9.97;9.27;;;20.30;71.10;;;;;;5013860;28;43449;-70
2023/05/09 03:59:23;;;;;;;10.70;9.90;;;20.40;70.70;;;;;;5019023;28;44126;-70
2023/05/09 04:01:52;;;;;;;9.60;8.93;;;20.50;70.10;;;;;;5015828;28;45666;-70
2023/05/09 04:04:23;;;;;;;9.80;9.10;;;20.60;69.90;;;;;;5023388;28;43956;-69
2023/05/09 04:06:51;;;;;;;9.10;8.60;;;20.60;69.80;;;;;;5043020;28;43395;-70
2023/05/09 04:09:19;;;;;;;8.47;7.97;;;20.60;69.80;;;;;;5027717;28;43452;-69
2023/05/09 04:11:48;;;;;;;8.13;7.73;;;20.50;69.80;;;;;;5028668;28;43816;-69
2023/05/09 04:14:16;;;;;;;8.83;8.30;;;20.40;69.90;;;;;;5020965;28;44705;-70
2023/05/09 04:16:44;;;;;;;8.90;8.40;;;20.40;70.40;;;;;;5042213;28;43400;-70
2023/05/09 04:19:12;;;;;;;8.53;8.03;;;20.40;70.60;;;;;;5032782;28;43436;-69
2023/05/09 04:21:41;;;;;;;8.70;8.20;;;20.30;70.50;;;;;;5021411;28;45993;-69
2023/05/09 04:24:09;;;;;;;7.97;7.57;;;20.30;70.40;;;;;;5039268;28;43508;-69
2023/05/09 04:26:46;;;;;;;8.90;8.40;;;20.30;70.50;;;;;;5028012;28;43930;-69
2023/05/09 04:29:18;;;;;;;9.03;8.53;;;20.30;70.80;;;;;;5021903;28;43582;-70
2023/05/09 04:31:51;;;;;;;8.80;8.30;;;20.20;70.90;;;;;;5021843;28;45744;-70
2023/05/09 04:34:25;;;;;;;8.03;7.63;;;20.30;70.90;;;;;;5021864;28;45745;-69
2023/05/09 04:36:56;;;;;;;7.77;7.37;;;20.20;70.70;;;;;;5019413;28;43363;-69
2023/05/09 04:39:24;;;;;;;8.90;8.40;;;20.20;70.80;;;;;;5025486;28;43855;-69
2023/05/09 04:42:03;;;;;;;8.63;8.23;;;20.20;71.00;;;;;;5024146;28;45638;-70
2023/05/09 04:44:32;;;;;;;8.27;7.77;;;20.20;71.10;;;;;;5043134;28;43649;-71
2023/05/09 04:47:00;;;;;;;8.13;7.70;;;20.30;70.80;;;;;;5018132;28;43496;-69
2023/05/09 04:49:28;;;;;;;8.37;7.87;;;20.40;70.30;;;;;;5009833;28;43426;-69
2023/05/09 04:51:58;;;;;;;8.47;7.97;;;20.50;69.80;;;;;;5012717;28;45964;-70
2023/05/09 04:54:26;;;;;;;7.73;7.37;;;20.60;69.60;;;;;;5032472;28;43373;-71
2023/05/09 04:56:54;;;;;;;8.30;7.80;;;20.60;69.50;;;;;;5021665;28;43405;-70
2023/05/09 04:59:38;;;;;;;7.33;6.97;;;20.60;69.70;;;;;;5038020;28;43395;-70
2023/05/09 05:02:06;;;;;;;7.23;6.93;;;20.50;69.80;;;;;;5020768;28;45982;-70
2023/05/09 05:04:35;;;;;;;7.50;7.20;;;20.40;70.20;;;;;;5035329;28;44766;-69
2023/05/09 05:07:05;;;;;;;7.40;7.00;;;20.40;70.40;;;;;;5023053;28;43376;-70
2023/05/09 05:09:32;;;;;;;7.03;6.73;;;20.40;70.40;;;;;;5024659;28;43375;-70
2023/05/09 05:12:01;;;;;;;6.80;6.50;;;20.30;70.30;;;;;;5023322;28;45578;-71
2023/05/09 05:14:33;;;;;;;7.43;7.03;;;20.30;70.40;;;;;;5020350;28;43401;-70
2023/05/09 05:17:05;;;;;;;7.60;7.20;;;20.20;70.50;;;;;;5018147;28;43499;-70
2023/05/09 05:19:33;;;;;;;7.77;7.37;;;20.20;70.80;;;;;;5023856;28;43611;-70
2023/05/09 05:22:04;;;;;;;6.87;6.57;;;20.20;70.70;;;;;;5027249;28;45716;-68
2023/05/09 05:24:33;;;;;;;7.07;6.77;;;20.20;70.60;;;;;;5028764;28;44973;-70
2023/05/09 05:27:02;;;;;;;7.03;6.73;;;20.20;70.70;;;;;;5013870;28;44048;-71
2023/05/09 05:29:34;;;;;;;7.30;7.00;;;20.20;70.80;;;;;;5025845;28;44232;-72
2023/05/09 05:32:02;;;;;;;7.90;7.60;;;20.20;71.10;;;;;;5017188;28;45695;-69
2023/05/09 05:34:30;;;;;;;7.53;7.17;;;20.20;70.90;;;;;;5020052;28;44995;-69
2023/05/09 05:36:58;;;;;;;7.20;6.90;;;20.30;70.50;;;;;;5039820;28;43437;-68
2023/05/09 05:39:28;;;;;;;7.13;6.83;;;20.50;70.10;;;;;;5024186;28;43489;-68
2023/05/09 05:41:55;;;;;;;6.93;6.53;;;20.60;70.00;;;;;;5022634;28;45680;-69
2023/05/09 05:44:23;;;;;;;7.17;6.87;;;20.60;69.90;;;;;;5026503;28;44795;-69
2023/05/09 05:46:51;;;;;;;6.30;6.10;;;20.50;69.90;;;;;;5027952;28;43408;-70
2023/05/09 05:49:19;;;;;;;7.07;6.77;;;20.40;69.80;;;;;;5025128;28;43559;-70
2023/05/09 05:51:47;;;;;;;7.33;6.93;;;20.40;70.10;;;;;;5025750;28;46116;-69
2023/05/09 05:54:16;;;;;;;7.80;7.40;;;20.30;70.40;;;;;;5022137;28;44721;-70
2023/05/09 05:56:46;;;;;;;7.27;6.87;;;20.30;70.50;;;;;;5019471;28;43496;-71
2023/05/09 05:59:13;;;;;;;6.83;6.53;;;20.30;70.40;;;;;;5019774;28;44149;-69
2023/05/09 06:01:42;;;;;;;7.33;7.03;;;20.30;70.80;;;;;;5043315;28;43604;-69
2023/05/09 06:04:10;;;;;;;7.50;7.20;;;20.20;70.50;;;;;;5019784;28;43961;-69
2023/05/09 06:06:38;;;;;;;7.50;7.20;;;20.20;70.90;;;;;;5025569;28;43420;-69
2023/05/09 06:09:06;;;;;;;7.90;7.50;;;20.20;70.90;;;;;;5018782;28;43674;-69
2023/05/09 06:11:35;;;;;;;7.10;6.70;;;20.20;70.70;;;;;;5022886;28;45459;-69
2023/05/09 06:14:05;;;;;;;6.40;6.20;;;20.20;70.70;;;;;;5018776;28;45007;-69
2023/05/09 06:16:33;;;;;;;7.83;7.43;;;20.20;70.80;;;;;;5027742;28;43429;-69
2023/05/09 06:19:01;;;;;;;8.50;8.00;;;20.10;71.00;;;;;;5026724;28;44077;-68
2023/05/09 06:21:29;;;;;;;8.30;7.90;;;20.20;71.10;;;;;;5039612;28;44034;-70
2023/05/09 06:23:57;;;;;;;8.10;7.80;;;20.30;70.80;;;;;;5025591;28;44854;-68
2023/05/09 06:26:41;;;;;;;8.27;7.87;;;20.40;70.30;;;;;;5032700;28;43765;-69
2023/05/09 06:29:10;;;;;;;8.23;7.83;;;20.50;69.80;;;;;;5022701;28;43848;-71
2023/05/09 06:31:39;;;;;;;7.13;6.83;;;20.60;69.60;;;;;;5029028;28;43937;-68
2023/05/09 06:34:07;;;;;;;7.20;6.90;;;20.60;69.60;;;;;;5023824;28;44975;-69
2023/05/09 06:36:35;;;;;;;7.23;6.93;;;20.50;69.60;;;;;;5041181;28;43408;-69
2023/05/09 06:39:03;;;;;;;7.57;7.27;;;20.50;69.80;;;;;;5038470;28;43515;-69
2023/05/09 06:41:31;;;;;;;8.27;7.77;;;20.40;70.20;;;;;;5029857;28;43603;-71
2023/05/09 06:44:01;;;;;;;7.40;7.10;;;20.40;70.40;;;;;;5040100;28;43408;-69
2023/05/09 06:46:30;;;;;;;7.33;7.03;;;20.30;70.30;;;;;;5040772;28;43451;-69
2023/05/09 06:49:00;;;;;;;6.67;6.47;;;20.30;70.30;;;;;;5041153;28;43366;-69
2023/05/09 06:51:28;;;;;;;8.00;7.60;;;20.30;70.40;;;;;;5037687;28;44469;-69
2023/05/09 06:53:56;;;;;;;7.43;7.13;;;20.20;70.70;;;;;;5037804;28;43313;-69
2023/05/09 06:56:24;;;;;;;7.70;7.30;;;20.20;70.80;;;;;;5030640;28;43530;-69
2023/05/09 06:58:52;;;;;;;6.60;6.30;;;20.20;70.60;;;;;;5042349;28;43461;-68
2023/05/09 07:01:20;;;;;;;6.47;6.10;;;20.20;70.70;;;;;;5044050;28;43603;-70
2023/05/09 07:03:50;;;;;;;7.43;7.07;;;20.20;70.80;;;;;;5041309;28;43483;-69
2023/05/09 07:06:19;;;;;;;6.80;6.50;;;20.20;71.10;;;;;;5046220;28;43436;-68
2023/05/09 07:08:46;;;;;;;6.97;6.67;;;20.20;71.10;;;;;;5037574;28;43451;-68
2023/05/09 07:11:15;;;;;;;6.33;6.13;;;20.20;70.90;;;;;;5037870;28;43842;-68
2023/05/09 07:13:43;;;;;;;5.70;5.50;;;20.20;70.90;;;;;;5044352;28;43488;-69
2023/05/09 07:16:10;;;;;;;6.47;6.27;;;20.10;70.80;;;;;;5044452;28;43397;-70
2023/05/09 07:18:39;;;;;;;6.50;6.30;;;20.20;71.20;;;;;;5033325;28;43321;-70
2023/05/09 07:21:08;;;;;;;6.40;6.20;;;20.20;71.20;;;;;;5037093;28;43850;-69
2023/05/09 07:23:36;;;;;;;6.60;6.30;;;20.30;71.00;;;;;;5029927;28;43452;-69
2023/05/09 07:26:04;;;;;;;6.50;6.30;;;20.40;70.40;;;;;;5035348;28;43374;-68
2023/05/09 07:28:32;;;;;;;6.80;6.47;;;20.50;69.90;;;;;;5015306;28;43577;-70
2023/05/09 07:31:00;;;;;;;6.40;6.17;;;20.60;69.70;;;;;;5046413;28;43860;-69
2023/05/09 07:33:28;;;;;;;6.17;5.97;;;20.60;69.90;;;;;;5034685;28;43433;-70
2023/05/09 07:35:55;;;;;;;6.07;5.87;;;20.60;69.70;;;;;;5043365;28;43464;-69
2023/05/09 07:38:25;;;;;;;6.33;6.03;;;20.50;69.80;;;;;;5035706;28;43953;-69
2023/05/09 07:40:53;;;;;;;6.00;5.70;;;20.40;70.00;;;;;;5037279;28;43900;-69
2023/05/09 07:43:21;;;;;;;5.37;5.17;;;20.30;70.40;;;;;;5040982;28;43440;-69
2023/05/09 07:45:49;;;;;;;5.33;5.23;;;20.30;70.40;;;;;;5041470;28;44012;-69
2023/05/09 07:48:16;;;;;;;5.80;5.60;;;20.30;70.40;;;;;;5020074;28;43607;-69
2023/05/09 07:50:44;;;;;;;5.90;5.60;;;20.30;70.40;;;;;;5040183;28;45030;-69
2023/05/09 07:53:12;;;;;;;5.40;5.27;;;20.20;70.50;;;;;;5019059;28;44724;-69
2023/05/09 07:55:43;;;;;;;5.30;5.10;;;20.20;70.90;;;;;;5037065;28;43459;-68
2023/05/09 07:58:11;;;;;;;4.93;4.83;;;20.20;70.90;;;;;;5042938;28;43603;-68
2023/05/09 08:00:39;;;;;;;4.60;4.50;;;20.20;70.70;;;;;;5043169;28;43917;-69
2023/05/09 08:03:07;;;;;;;4.93;4.77;;;20.20;70.70;;;;;;5043866;28;43431;-69
2023/05/09 08:05:35;;;;;;;5.50;5.30;;;20.20;70.80;;;;;;5020787;28;43436;-69
2023/05/09 08:08:03;;;;;;;4.63;4.50;;;20.20;71.20;;;;;;5040689;28;43503;-69
2023/05/09 08:10:32;;;;;;;4.80;4.70;;;20.20;71.20;;;;;;5024496;28;46117;-70
2023/05/09 08:13:01;;;;;;;5.30;5.10;;;20.30;71.00;;;;;;5036404;28;43442;-68
2023/05/09 08:15:30;;;;;;;4.60;4.50;;;20.40;71.20;;;;;;5039687;28;43816;-69
2023/05/09 08:17:58;;;;;;;4.27;4.17;;;20.50;70.00;;;;;;5041426;28;43410;-69
2023/05/09 08:20:26;;;;;;;4.73;4.60;;;20.60;69.90;;;;;;5037386;28;43604;-68
2023/05/09 08:22:54;;;;;;;4.97;4.83;;;20.60;69.80;;;;;;5016635;28;45122;-69
2023/05/09 08:25:21;;;;;;;4.40;4.30;;;20.60;69.80;;;;;;5016895;28;43398;-68
2023/05/09 08:27:51;;;;;;;4.80;4.60;;;20.50;69.80;;;;;;5040530;28;43551;-70
2023/05/09 08:30:21;;;;;;;4.23;4.10;;;20.40;70.10;;;;;;5041363;28;43887;-69
2023/05/09 08:32:49;;;;;;;4.00;3.90;;;20.30;70.50;;;;;;5024552;28;43487;-69
2023/05/09 08:35:17;;;;;;;4.10;4.00;;;20.30;70.50;;;;;;5022622;28;43369;-69
2023/05/09 08:37:46;;;;;;;3.87;3.77;;;20.30;70.40;;;;;;5038538;28;43992;-69
2023/05/09 08:40:16;;;;;;;3.80;3.70;;;20.30;70.50;;;;;;5039653;28;43890;-69
2023/05/09 08:42:44;;;;;;;3.87;3.77;;;20.20;70.50;;;;;;5041571;28;43430;-69
2023/05/09 08:45:14;;;;;;;3.97;3.87;;;20.20;70.90;;;;;;5019892;28;43941;-70
2023/05/09 08:47:43;;;;;;;3.83;3.73;;;20.20;70.90;;;;;;5011854;28;43524;-69
2023/05/09 08:50:13;;;;;;;3.70;3.60;;;20.20;70.80;;;;;;5040429;28;43835;-69
2023/05/09 08:52:42;;;;;;;3.90;3.80;;;20.20;70.80;;;;;;5041883;28;43494;-70
2023/05/09 08:55:10;;;;;;;3.70;3.60;;;20.20;70.90;;;;;;5037178;28;43460;-69
2023/05/09 08:57:38;;;;;;;3.63;3.60;;;20.20;71.10;;;;;;5048292;28;43858;-69
2023/05/09 09:00:09;;;;;;;3.40;3.30;;;20.20;71.20;;;;;;5040163;28;43606;-70
2023/05/09 09:02:39;;;;;;;3.50;3.40;;;20.20;71.10;;;;;;5009273;28;45024;-70
2023/05/09 09:05:09;;;;;;;3.83;3.73;;;20.40;70.70;;;;;;5034592;28;43458;-69
2023/05/09 09:07:51;;;;;;;2.93;2.93;;;20.50;70.10;;;;;;5039843;28;43350;-69
2023/05/09 09:10:20;;;;;;;3.40;3.30;;;20.60;70.10;;;;;;5044067;28;43901;-70
2023/05/09 09:12:48;;;;;;;3.33;3.23;;;20.50;69.80;;;;;;5045379;28;43967;-69
2023/05/09 09:15:17;;;;;;;3.30;3.20;;;20.50;69.90;;;;;;5038748;28;43440;-69
2023/05/09 09:17:45;;;;;;;3.00;3.00;;;20.40;70.10;;;;;;5032311;28;43400;-69
2023/05/09 09:20:15;;;;;;;3.33;3.23;;;20.30;70.40;;;;;;5032214;28;44123;-69
2023/05/09 09:22:43;;;;;;;2.70;2.70;;;20.30;70.70;;;;;;5038569;28;43750;-69
2023/05/09 09:25:11;;;;;;;3.10;3.00;;;20.30;70.60;;;;;;5044549;28;43422;-69
2023/05/09 09:27:41;;;;;;;2.90;2.90;;;20.30;70.60;;;;;;5044341;28;43496;-69
2023/05/09 09:30:10;;;;;;;3.00;3.00;;;20.20;70.60;;;;;;5034714;28;43777;-70
2023/05/09 09:32:41;;;;;;;2.97;2.87;;;20.20;70.90;;;;;;5025142;28;44679;-70
2023/05/09 09:35:10;;;;;;;2.60;2.60;;;20.20;71.00;;;;;;5042115;28;43352;-69
2023/05/09 09:37:40;;;;;;;3.10;3.00;;;20.20;71.00;;;;;;5026258;28;43591;-70
2023/05/09 09:40:09;;;;;;;2.80;2.80;;;20.20;70.90;;;;;;5038653;28;43921;-70
2023/05/09 09:42:42;;;;;;;3.20;3.10;;;20.20;70.90;;;;;;5041586;28;43963;-70
2023/05/09 09:45:12;;;;;;;2.77;2.77;;;20.20;71.00;;;;;;5034450;28;43485;-69
2023/05/09 09:47:40;;;;;;;2.60;2.60;;;20.10;71.20;;;;;;5025706;28;44194;-69
2023/05/09 09:50:10;;;;;;;2.80;2.80;;;20.20;71.20;;;;;;5039559;28;43674;-70
2023/05/09 09:52:44;;;;;;;2.67;2.67;;;20.30;71.00;;;;;;5026274;28;44889;-69
2023/05/09 09:55:12;;;;;;;2.50;2.50;;;20.40;70.40;;;;;;5035244;28;43397;-69
2023/05/09 09:57:43;;;;;;;2.70;2.70;;;20.50;70.30;;;;;;5040456;28;43478;-68
2023/05/09 10:00:12;;;;;;;2.40;2.40;;;20.50;70.20;;;;;;5033091;28;43588;-69
2023/05/09 10:02:48;;;;;;;2.23;2.23;;;20.40;70.10;;;;;;5042195;28;43984;-70
2023/05/09 10:05:20;;;;;;;2.67;2.67;;;20.30;70.20;;;;;;5022710;28;43429;-70
2023/05/09 10:07:56;;;;;;;2.27;2.27;;;20.30;70.50;;;;;;5041578;28;43520;-70
2023/05/09 10:10:27;;;;;;;2.47;2.47;;;20.30;70.90;;;;;;5038323;28;43912;-69
2023/05/09 10:12:56;;;;;;;2.43;2.33;;;20.20;70.80;;;;;;5045857;28;43432;-70
2023/05/09 10:15:25;;;;;;;2.30;2.30;;;20.20;70.70;;;;;;5036485;28;43747;-70
2023/05/09 10:17:56;;;;;;;2.67;2.67;;;20.20;70.80;;;;;;5043951;28;43384;-69
2023/05/09 10:20:25;;;;;;;2.57;2.57;;;20.20;71.00;;;;;;5042521;28;43870;-70
2023/05/09 10:22:57;;;;;;;2.37;2.37;;;20.20;71.30;;;;;;5044120;28;43370;-70
2023/05/09 10:25:27;;;;;;;2.10;2.10;;;20.20;71.00;;;;;;5041608;28;43385;-70
2023/05/09 10:27:56;;;;;;;2.70;2.60;;;20.30;70.90;;;;;;5013887;28;43608;-69
2023/05/09 10:30:27;;;;;;;2.37;2.37;;;20.30;70.70;;;;;;5039039;28;43874;-70
2023/05/09 10:32:59;;;;;;;2.00;2.00;;;20.30;70.70;;;;;;5036815;28;43413;-69
2023/05/09 10:35:29;;;;;;;2.30;2.30;;;20.30;71.00;;;;;;5024569;28;43337;-71
2023/05/09 10:37:59;;;;;;;2.30;2.30;;;20.30;70.90;;;;;;5039102;28;43461;-69
2023/05/09 10:40:27;;;;;;;2.17;2.17;;;20.20;70.80;;;;;;5024279;28;43606;-69
2023/05/09 10:42:55;;;;;;;2.10;2.10;;;20.20;70.70;;;;;;5032576;28;43436;-69
2023/05/09 10:45:23;;;;;;;2.17;2.17;;;20.20;70.90;;;;;;5032171;28;43514;-70
2023/05/09 10:47:52;;;;;;;2.13;2.13;;;20.20;71.10;;;;;;5025596;28;44137;-72
2023/05/09 10:50:21;;;;;;;2.00;2.00;;;20.20;71.20;;;;;;5034815;28;43636;-70
2023/05/09 10:53:12;;;;;;;2.00;2.00;;;20.30;71.10;;;;;;5038983;28;43447;-70
2023/05/09 10:55:49;;;;;;;2.10;2.10;;;20.40;70.80;;;;;;5027797;28;43424;-69
2023/05/09 10:58:21;;;;;;;2.30;2.30;;;20.40;70.60;;;;;;5037727;28;43433;-69
2023/05/09 11:00:50;;;;;;;2.10;2.00;;;20.30;70.40;;;;;;5039485;28;43860;-70
2023/05/09 11:03:18;;;;;;;2.20;2.10;;;20.30;70.80;;;;;;5039803;28;43503;-70
2023/05/09 11:05:46;;;;;;;2.10;2.10;;;20.40;70.80;;;;;;5022659;28;43389;-69
2023/05/09 11:08:26;;;;;;;2.17;2.17;;;20.30;70.70;;;;;;5037066;28;43495;-69
2023/05/09 11:10:54;;;;;;;2.07;2.07;;;20.30;70.70;;;;;;5040089;28;43641;-70
2023/05/09 11:13:23;;;;;;;2.00;2.00;;;20.30;70.80;;;;;;5005087;28;44603;-69
2023/05/09 11:16:04;;;;;;;2.00;2.00;;;20.20;71.00;;;;;;5039922;28;43415;-70
2023/05/09 11:18:32;;;;;;;1.90;1.90;;;20.20;71.10;;;;;;5043541;28;43811;-70
2023/05/09 11:21:07;;;;;;;2.00;2.00;;;20.20;71.00;;;;;;5041021;28;43863;-70
2023/05/09 11:23:37;;;;;;;1.90;1.90;;;20.20;70.90;;;;;;5026149;28;44398;-70
2023/05/09 11:26:06;;;;;;;1.93;1.90;;;20.20;71.10;;;;;;5042607;28;43624;-69
2023/05/09 11:28:35;;;;;;;2.00;2.00;;;20.20;71.30;;;;;;5044635;28;43816;-70
2023/05/09 11:31:12;;;;;;;1.90;1.90;;;20.20;71.20;;;;;;5038192;28;43920;-70
2023/05/09 11:33:41;;;;;;;1.80;1.80;;;20.20;71.10;;;;;;5015971;28;44684;-68
2023/05/09 11:36:24;;;;;;;2.10;2.00;;;20.20;71.10;;;;;;5035795;28;43424;-69
2023/05/09 11:39:06;;;;;;;2.17;2.17;;;20.10;71.10;;;;;;5021583;28;43334;-69
2023/05/09 11:41:39;;;;;;;1.80;1.80;;;20.10;71.40;;;;;;5043641;28;43677;-70
2023/05/09 11:44:15;;;;;;;2.10;2.10;;;20.20;71.50;;;;;;5045075;28;43578;-69
2023/05/09 11:46:46;;;;;;;1.80;1.80;;;20.30;71.10;;;;;;5012409;28;43494;-70
2023/05/09 11:49:14;;;;;;;1.80;1.80;;;20.40;70.60;;;;;;5041217;28;43417;-70
2023/05/09 11:51:42;;;;;;;1.80;1.80;;;20.50;70.30;;;;;;4998838;28;46173;-70
2023/05/09 11:54:13;;;;;;;1.77;1.77;;;20.50;70.10;;;;;;5028304;28;43473;-69
2023/05/09 11:56:42;;;;;;;1.83;1.83;;;20.50;70.00;;;;;;5034823;28;43394;-69
2023/05/09 11:59:11;;;;;;;1.80;1.80;;;20.50;70.20;;;;;;5034104;28;43612;-69
2023/05/09 12:01:40;;;;;;;1.80;1.80;;;20.40;70.20;;;;;;5027398;28;44050;-69
2023/05/09 12:04:08;;;;;;;1.90;1.90;;;20.40;70.70;;;;;;5038083;28;43492;-69
2023/05/09 12:06:36;;;;;;;1.80;1.80;;;20.30;70.80;;;;;;5036352;28;43430;-69
2023/05/09 12:09:05;;;;;;;1.70;1.70;;;20.30;70.80;;;;;;5031245;28;43776;-70
2023/05/09 12:11:35;;;;;;;1.70;1.70;;;20.30;70.80;;;;;;5012759;28;46112;-69
2023/05/09 12:14:04;;;;;;;1.70;1.70;;;20.20;70.70;;;;;;5039684;28;43489;-69
2023/05/09 12:16:32;;;;;;;1.60;1.60;;;20.20;70.90;;;;;;5033477;28;43474;-70
2023/05/09 12:19:00;;;;;;;1.90;1.80;;;20.20;71.30;;;;;;5016774;28;43619;-69
2023/05/09 12:21:28;;;;;;;1.83;1.83;;;20.20;71.20;;;;;;5041025;28;43954;-69
2023/05/09 12:23:56;;;;;;;1.80;1.80;;;20.30;71.00;;;;;;5037302;28;43435;-69
2023/05/09 12:26:24;;;;;;;1.70;1.70;;;20.30;70.80;;;;;;5028234;28;43425;-69
2023/05/09 12:28:53;;;;;;;1.77;1.77;;;20.40;70.70;;;;;;5036014;28;43435;-68
2023/05/09 12:31:21;;;;;;;1.70;1.70;;;20.30;70.80;;;;;;5015301;28;45916;-69
2023/05/09 12:33:49;;;;;;;1.83;1.70;;;20.30;70.80;;;;;;5042544;28;43464;-69
2023/05/09 12:36:17;;;;;;;1.40;1.40;;;20.30;70.80;;;;;;5017831;28;43409;-69
2023/05/09 12:38:53;;;;;;;1.40;1.40;;;20.30;70.70;;;;;;5030862;28;43637;-69
2023/05/09 12:41:21;;;;;;;1.47;1.47;;;20.30;70.80;;;;;;5036677;28;43920;-69
2023/05/09 12:44:00;;;;;;;1.93;1.87;;;20.20;70.80;;;;;;5043292;28;43838;-69
2023/05/09 12:46:28;;;;;;;1.60;1.60;;;20.20;71.00;;;;;;5043166;28;43430;-69
2023/05/09 12:48:56;;;;;;;1.40;1.40;;;20.20;70.90;;;;;;5039200;28;43389;-69
2023/05/09 12:51:24;;;;;;;1.70;1.70;;;20.20;70.90;;;;;;5040893;28;43733;-70
2023/05/09 12:53:52;;;;;;;1.80;1.80;;;20.20;70.90;;;;;;5041595;28;43433;-70
2023/05/09 12:56:22;;;;;;;1.57;1.57;;;20.20;71.00;;;;;;5033197;28;43350;-69